createdAt,value
2023-11-09T00:00:05.293Z,90.60
2023-11-09T00:02:32.589Z,90.70
2023-11-09T00:05:00.523Z,90.90
2023-11-09T00:07:27.937Z,90.70
2023-11-09T00:09:55.414Z,90.70
2023-11-09T00:12:24.460Z,90.80
2023-11-09T00:14:51.983Z,90.70
2023-11-09T00:17:21.474Z,90.70
2023-11-09T00:19:49.022Z,90.70
2023-11-09T00:22:16.662Z,90.60
2023-11-09T00:24:44.298Z,90.70
2023-11-09T00:27:22.344Z,90.70
2023-11-09T00:29:49.815Z,90.70
2023-11-09T00:32:17.687Z,90.70
2023-11-09T00:34:50.044Z,90.60
2023-11-09T00:37:17.546Z,90.60
2023-11-09T00:39:46.507Z,90.60
2023-11-09T00:42:14.101Z,90.50
2023-11-09T00:44:42.642Z,90.60
2023-11-09T00:47:12.620Z,90.30
2023-11-09T00:49:39.935Z,90.20
2023-11-09T00:52:07.446Z,90.00
2023-11-09T00:54:34.984Z,90.00
2023-11-09T00:57:02.417Z,90.00
2023-11-09T00:59:29.855Z,89.60
2023-11-09T01:01:57.286Z,89.70
2023-11-09T01:04:26.447Z,89.60
2023-11-09T01:06:54.647Z,89.70
2023-11-09T01:09:21.930Z,89.50
2023-11-09T01:11:50.256Z,90.00
2023-11-09T01:14:21.538Z,89.30
2023-11-09T01:16:49.800Z,89.20
2023-11-09T01:19:17.277Z,89.00
2023-11-09T01:21:44.783Z,89.20
2023-11-09T01:24:12.357Z,88.90
2023-11-09T01:26:39.858Z,89.20
2023-11-09T01:29:07.959Z,88.90
2023-11-09T01:31:35.902Z,88.70
2023-11-09T01:34:10.185Z,88.40
2023-11-09T01:36:40.515Z,88.60
2023-11-09T01:39:08.174Z,88.20
2023-11-09T01:41:35.609Z,88.00
2023-11-09T01:44:03.404Z,87.90
2023-11-09T01:46:31.287Z,88.20
2023-11-09T01:49:00.521Z,88.20
2023-11-09T01:51:29.532Z,88.00
2023-11-09T01:53:57.084Z,87.70
2023-11-09T01:56:26.332Z,87.70
2023-11-09T01:58:54.175Z,87.40
2023-11-09T02:01:22.837Z,87.20
2023-11-09T02:03:50.433Z,87.40
2023-11-09T02:06:19.780Z,87.40
2023-11-09T02:08:48.872Z,87.40
2023-11-09T02:11:16.576Z,87.10
2023-11-09T02:13:43.934Z,88.10
2023-11-09T02:16:11.312Z,88.20
2023-11-09T02:18:38.714Z,90.10
2023-11-09T02:21:06.451Z,90.50
2023-11-09T02:23:35.203Z,90.40
2023-11-09T02:26:02.889Z,90.20
2023-11-09T02:28:33.532Z,84.30
2023-11-09T02:31:00.961Z,82.20
2023-11-09T02:33:28.501Z,81.60
2023-11-09T02:35:55.969Z,80.90
2023-11-09T02:38:24.056Z,81.60
2023-11-09T02:40:52.085Z,78.60
2023-11-09T02:43:19.786Z,76.00
2023-11-09T02:45:47.285Z,75.00
2023-11-09T02:48:14.809Z,75.70
2023-11-09T02:50:42.186Z,76.20
2023-11-09T02:53:09.898Z,74.20
2023-11-09T02:55:37.807Z,73.20
2023-11-09T02:58:07.297Z,72.50
2023-11-09T03:00:37.533Z,71.90
2023-11-09T03:03:05.846Z,70.80
2023-11-09T03:05:33.461Z,70.20
2023-11-09T03:08:00.887Z,69.90
2023-11-09T03:10:28.310Z,69.80
2023-11-09T03:12:56.576Z,69.70
2023-11-09T03:15:23.943Z,69.30
2023-11-09T03:17:51.494Z,69.30
2023-11-09T03:20:19.225Z,68.90
2023-11-09T03:22:46.896Z,68.60
2023-11-09T03:25:15.037Z,68.60
2023-11-09T03:27:42.529Z,68.30
2023-11-09T03:30:12.162Z,68.40
2023-11-09T03:32:39.665Z,68.30
2023-11-09T03:35:08.209Z,68.30
2023-11-09T03:37:36.992Z,68.40
2023-11-09T03:40:07.544Z,68.30
2023-11-09T03:42:35.045Z,68.40
2023-11-09T03:45:02.825Z,68.40
2023-11-09T03:47:30.298Z,68.40
2023-11-09T03:49:57.916Z,67.00
2023-11-09T03:52:28.666Z,66.60
2023-11-09T03:54:56.756Z,66.80
2023-11-09T03:57:24.408Z,66.90
2023-11-09T03:59:51.911Z,66.90
2023-11-09T04:02:19.434Z,65.90
2023-11-09T04:04:48.165Z,65.10
2023-11-09T04:07:15.775Z,65.10
2023-11-09T04:09:43.486Z,65.10
2023-11-09T04:12:11.052Z,65.50
2023-11-09T04:14:38.308Z,65.80
2023-11-09T04:17:05.781Z,65.80
2023-11-09T04:19:33.340Z,65.90
2023-11-09T04:22:00.622Z,65.90
2023-11-09T04:24:27.972Z,66.00
2023-11-09T04:26:57.815Z,67.00
2023-11-09T04:29:25.763Z,67.80
2023-11-09T04:31:53.087Z,69.00
2023-11-09T04:34:21.166Z,69.40
2023-11-09T04:36:51.540Z,69.80
2023-11-09T04:39:29.674Z,70.10
2023-11-09T04:42:01.560Z,70.50
2023-11-09T04:44:30.349Z,70.90
2023-11-09T04:46:59.470Z,71.30
2023-11-09T04:49:29.005Z,71.40
2023-11-09T04:52:04.304Z,71.50
2023-11-09T04:54:46.130Z,71.80
2023-11-09T04:57:34.003Z,71.90
2023-11-09T05:00:01.576Z,72.50
2023-11-09T05:05:58.391Z,73.00
2023-11-09T05:08:25.747Z,73.10
2023-11-09T05:10:54.394Z,73.50
2023-11-09T05:13:21.849Z,73.80
2023-11-09T05:15:50.079Z,74.10
2023-11-09T05:18:18.069Z,74.40
2023-11-09T05:20:45.442Z,74.60
2023-11-09T05:23:12.680Z,74.90
2023-11-09T05:25:42.896Z,79.50
2023-11-09T05:28:10.303Z,82.70
2023-11-09T05:30:37.736Z,87.50
2023-11-09T05:33:05.766Z,88.70
2023-11-09T05:35:33.453Z,84.80
2023-11-09T05:38:00.922Z,85.80
2023-11-09T05:40:28.674Z,90.20
2023-11-09T05:42:56.442Z,90.90
2023-11-09T05:45:23.917Z,90.60
2023-11-09T05:47:52.485Z,90.00
2023-11-09T05:50:20.217Z,86.00
2023-11-09T05:52:47.790Z,86.70
2023-11-09T05:55:15.410Z,86.50
2023-11-09T05:57:42.852Z,86.10
2023-11-09T06:00:12.286Z,83.50
2023-11-09T06:02:39.555Z,86.00
2023-11-09T06:05:07.212Z,91.50
2023-11-09T06:07:35.703Z,89.40
2023-11-09T06:10:04.752Z,80.10
2023-11-09T06:12:32.067Z,91.90
2023-11-09T06:14:59.408Z,86.10
2023-11-09T06:17:26.734Z,89.30
2023-11-09T06:19:54.344Z,91.30
2023-11-09T06:22:21.579Z,93.70
2023-11-09T06:24:49.238Z,91.10
2023-11-09T06:27:19.138Z,90.00
2023-11-09T06:29:47.675Z,90.80
2023-11-09T06:32:15.050Z,89.60
2023-11-09T06:34:43.583Z,89.60
2023-11-09T06:37:11.173Z,90.00
2023-11-09T06:39:38.868Z,90.00
2023-11-09T06:42:12.223Z,90.10
2023-11-09T06:44:40.697Z,89.90
2023-11-09T06:47:08.103Z,90.30
2023-11-09T06:49:35.518Z,90.30
2023-11-09T06:52:03.403Z,90.80
2023-11-09T06:54:31.148Z,90.30
2023-11-09T06:56:58.612Z,90.20
2023-11-09T06:59:26.147Z,90.40
2023-11-09T07:01:54.687Z,90.50
2023-11-09T07:04:25.023Z,90.70
2023-11-09T07:06:52.470Z,91.00
2023-11-09T07:09:20.216Z,90.80
2023-11-09T07:11:49.679Z,90.70
2023-11-09T07:14:17.044Z,90.70
2023-11-09T07:16:44.965Z,90.50
2023-11-09T07:19:13.425Z,90.30
2023-11-09T07:21:41.040Z,90.40
2023-11-09T07:24:09.472Z,90.10
2023-11-09T07:26:36.697Z,89.70
2023-11-09T07:29:04.608Z,89.10
2023-11-09T07:31:31.993Z,89.10
2023-11-09T07:33:59.257Z,89.20
2023-11-09T07:36:26.585Z,88.60
2023-11-09T07:38:56.557Z,86.00
2023-11-09T07:41:28.307Z,85.20
2023-11-09T07:43:56.446Z,84.50
2023-11-09T07:46:23.944Z,83.70
2023-11-09T07:48:51.463Z,83.60
2023-11-09T07:51:24.955Z,83.80
2023-11-09T07:53:53.015Z,84.00
2023-11-09T07:56:20.426Z,84.40
2023-11-09T07:58:48.168Z,84.90
2023-11-09T08:01:15.727Z,84.70
2023-11-09T08:03:43.363Z,84.30
2023-11-09T08:06:10.761Z,83.90
2023-11-09T08:08:39.288Z,84.00
2023-11-09T08:11:06.554Z,83.70
2023-11-09T08:13:34.688Z,83.50
2023-11-09T08:16:02.082Z,83.40
2023-11-09T08:18:29.595Z,83.10
2023-11-09T08:20:57.430Z,83.20
2023-11-09T08:23:25.192Z,83.10
2023-11-09T08:25:54.575Z,82.80
2023-11-09T08:28:22.119Z,83.30
2023-11-09T08:30:51.561Z,82.20
2023-11-09T08:33:23.547Z,82.60
2023-11-09T08:35:55.048Z,83.70
2023-11-09T08:38:23.520Z,82.00
2023-11-09T08:40:52.614Z,81.60
2023-11-09T08:43:20.164Z,81.80
2023-11-09T08:45:48.112Z,83.00
2023-11-09T08:48:15.415Z,87.60
2023-11-09T08:50:43.579Z,83.10
2023-11-09T08:53:10.954Z,80.50
2023-11-09T08:55:41.611Z,89.90
2023-11-09T08:58:08.892Z,86.00
2023-11-09T09:00:36.265Z,91.00
2023-11-09T09:03:03.572Z,92.20
2023-11-09T09:05:32.508Z,91.40
2023-11-09T09:08:03.183Z,91.90
2023-11-09T09:10:32.771Z,92.70
2023-11-09T09:13:03.876Z,84.20
2023-11-09T09:15:31.325Z,87.10
2023-11-09T09:18:00.393Z,88.60
2023-11-09T09:20:29.676Z,87.10
2023-11-09T09:23:01.241Z,86.40
2023-11-09T09:25:31.997Z,90.20
2023-11-09T09:28:00.568Z,90.50
2023-11-09T09:30:28.467Z,88.00
2023-11-09T09:33:00.935Z,89.90
2023-11-09T09:35:38.694Z,89.00
2023-11-09T09:38:13.213Z,91.50
2023-11-09T09:40:47.966Z,84.70
2023-11-09T09:43:21.266Z,80.70
2023-11-09T09:45:58.479Z,74.40
2023-11-09T09:48:29.169Z,73.70
2023-11-09T09:51:00.116Z,76.50
2023-11-09T09:53:28.658Z,79.30
2023-11-09T09:55:57.992Z,79.00
2023-11-09T09:58:25.430Z,80.00
2023-11-09T10:00:58.513Z,81.50
2023-11-09T10:03:29.645Z,84.10
2023-11-09T10:05:57.340Z,86.10
2023-11-09T10:08:25.511Z,87.70
2023-11-09T10:10:55.484Z,85.20
2023-11-09T10:13:25.929Z,84.50
2023-11-09T10:15:58.900Z,79.60
2023-11-09T10:18:31.626Z,73.10
2023-11-09T10:21:02.711Z,73.00
2023-11-09T10:23:30.284Z,72.50
2023-11-09T10:25:58.821Z,74.10
2023-11-09T10:28:35.457Z,71.20
2023-11-09T10:31:03.067Z,70.20
2023-11-09T10:33:35.249Z,69.30
2023-11-09T10:36:06.437Z,70.60
2023-11-09T10:38:34.932Z,72.20
2023-11-09T10:41:15.613Z,73.80
2023-11-09T10:43:51.906Z,75.90
2023-11-09T10:46:21.248Z,78.70
2023-11-09T10:48:52.163Z,80.00
2023-11-09T10:51:22.348Z,82.00
2023-11-09T10:53:50.791Z,80.70
2023-11-09T10:56:18.709Z,84.40
2023-11-09T10:58:47.357Z,84.70
2023-11-09T11:01:27.758Z,86.20
2023-11-09T11:03:59.217Z,87.70
2023-11-09T11:06:44.196Z,85.80
2023-11-09T11:09:20.210Z,81.70
2023-11-09T11:11:50.972Z,78.80
2023-11-09T11:14:24.594Z,74.40
2023-11-09T11:17:12.730Z,72.00
2023-11-09T11:20:01.260Z,70.30
2023-11-09T11:23:17.109Z,70.10
2023-11-09T11:26:12.131Z,69.90
2023-11-09T11:28:44.305Z,69.30
2023-11-09T11:31:14.860Z,69.80
2023-11-09T11:33:42.904Z,70.30
2023-11-09T11:36:28.172Z,70.40
2023-11-09T11:39:22.305Z,69.60
2023-11-09T11:41:52.755Z,69.00
2023-11-09T11:44:26.643Z,68.80
2023-11-09T11:46:59.586Z,69.40
2023-11-09T11:49:27.723Z,68.90
2023-11-09T11:51:59.277Z,68.70
2023-11-09T11:54:29.732Z,68.70
2023-11-09T11:56:57.386Z,68.50
2023-11-09T11:59:24.662Z,68.30
2023-11-09T12:01:52.505Z,68.80
2023-11-09T12:04:20.151Z,68.60
2023-11-09T12:06:50.195Z,68.70
2023-11-09T12:09:20.050Z,69.10
2023-11-09T12:11:51.758Z,69.10
2023-11-09T12:14:21.207Z,69.20
2023-11-09T12:16:50.205Z,69.60
2023-11-09T12:19:19.859Z,69.80
2023-11-09T12:21:48.370Z,69.80
2023-11-09T12:24:24.852Z,69.50
2023-11-09T12:27:12.392Z,69.40
2023-11-09T12:29:43.575Z,69.60
2023-11-09T12:32:13.433Z,69.40
2023-11-09T12:34:44.593Z,69.40
2023-11-09T12:37:15.866Z,69.80
2023-11-09T12:39:44.844Z,69.60
2023-11-09T12:42:24.321Z,69.30
2023-11-09T12:44:54.562Z,69.70
2023-11-09T12:47:23.028Z,69.70
2023-11-09T12:49:55.042Z,69.30
2023-11-09T12:52:28.262Z,69.40
2023-11-09T12:54:57.546Z,69.20
2023-11-09T12:57:26.329Z,69.40
2023-11-09T12:59:57.721Z,69.50
2023-11-09T13:02:41.683Z,69.70
2023-11-09T13:05:11.184Z,70.10
2023-11-09T13:07:38.403Z,70.20
2023-11-09T13:10:23.275Z,69.80
2023-11-09T13:12:55.862Z,69.60
2023-11-09T13:15:43.113Z,69.60
2023-11-09T13:18:14.071Z,69.80
2023-11-09T13:20:42.485Z,69.90
2023-11-09T13:23:12.647Z,69.80
2023-11-09T13:25:50.950Z,69.80
2023-11-09T13:28:19.385Z,69.60
2023-11-09T13:30:55.642Z,69.50
2023-11-09T13:33:31.539Z,69.40
2023-11-09T13:36:11.607Z,69.60
2023-11-09T13:39:13.258Z,69.60
2023-11-09T13:41:44.091Z,69.60
2023-11-09T13:44:17.815Z,69.50
2023-11-09T13:46:45.540Z,69.60
2023-11-09T13:49:18.129Z,69.70
2023-11-09T13:52:03.516Z,69.80
2023-11-09T13:54:44.610Z,69.40
2023-11-09T13:57:14.990Z,69.70
2023-11-09T13:59:55.812Z,69.80
2023-11-09T14:02:31.592Z,69.60
2023-11-09T14:05:09.105Z,69.70
2023-11-09T14:07:43.379Z,69.60
2023-11-09T14:10:16.157Z,69.70
2023-11-09T14:12:44.969Z,69.80
2023-11-09T14:15:24.807Z,69.50
2023-11-09T14:18:24.290Z,69.50
2023-11-09T14:20:55.106Z,69.50
2023-11-09T14:23:25.819Z,69.20
2023-11-09T14:25:55.393Z,69.40
2023-11-09T14:28:23.343Z,68.90
2023-11-09T14:30:52.225Z,71.80
2023-11-09T14:33:27.451Z,75.80
2023-11-09T14:35:59.948Z,76.50
2023-11-09T14:38:28.933Z,77.10
2023-11-09T14:40:59.115Z,74.50
2023-11-09T14:43:27.603Z,72.50
2023-11-09T14:45:55.230Z,73.90
2023-11-09T14:48:26.287Z,71.00
2023-11-09T14:50:57.460Z,72.00
2023-11-09T14:53:33.874Z,71.30
2023-11-09T14:56:07.894Z,71.30
2023-11-09T14:58:35.765Z,71.30
2023-11-09T15:01:05.590Z,71.60
2023-11-09T15:03:35.389Z,72.00
2023-11-09T15:06:14.718Z,72.20
2023-11-09T15:08:42.443Z,71.90
2023-11-09T15:11:16.046Z,71.90
2023-11-09T15:13:48.699Z,71.80
2023-11-09T15:16:21.051Z,72.70
2023-11-09T15:18:52.395Z,73.70
2023-11-09T15:21:22.812Z,73.70
2023-11-09T15:23:50.472Z,72.70
2023-11-09T15:26:18.762Z,72.20
2023-11-09T15:28:46.113Z,72.50
2023-11-09T15:31:14.258Z,72.50
2023-11-09T15:33:41.916Z,72.80
2023-11-09T15:36:09.353Z,73.40
2023-11-09T15:38:38.803Z,71.90
2023-11-09T15:41:18.647Z,78.20
2023-11-09T15:43:51.396Z,76.60
2023-11-09T15:46:18.704Z,70.00
2023-11-09T15:48:47.604Z,68.50
2023-11-09T15:51:17.857Z,68.20
2023-11-09T15:53:45.375Z,68.00
2023-11-09T15:56:17.091Z,68.70
2023-11-09T15:58:49.886Z,68.30
2023-11-09T16:01:18.591Z,68.80
2023-11-09T16:03:46.719Z,69.40
2023-11-09T16:06:14.654Z,70.00
2023-11-09T16:08:42.401Z,70.60
2023-11-09T16:11:10.920Z,70.60
2023-11-09T16:13:39.474Z,70.40
2023-11-09T16:16:07.277Z,70.60
2023-11-09T16:18:35.253Z,69.70
2023-11-09T16:21:03.052Z,70.20
2023-11-09T16:23:32.957Z,70.10
2023-11-09T16:26:01.427Z,70.70
2023-11-09T16:28:32.662Z,70.40
2023-11-09T16:31:07.814Z,70.40
2023-11-09T16:33:35.909Z,71.50
2023-11-09T16:36:03.329Z,71.60
2023-11-09T16:38:30.766Z,71.40
2023-11-09T16:40:58.229Z,71.50
2023-11-09T16:43:26.000Z,71.10
2023-11-09T16:45:56.811Z,71.10
2023-11-09T16:48:25.113Z,70.90
2023-11-09T16:50:52.498Z,70.90
2023-11-09T16:53:20.715Z,70.70
2023-11-09T16:55:48.336Z,71.20
2023-11-09T16:58:16.078Z,71.10
2023-11-09T17:00:45.116Z,71.30
2023-11-09T17:03:12.610Z,71.20
2023-11-09T17:05:41.066Z,71.20
2023-11-09T17:08:10.491Z,71.00
2023-11-09T17:10:40.714Z,71.00
2023-11-09T17:13:11.932Z,71.10
2023-11-09T17:15:39.583Z,70.80
2023-11-09T17:18:12.792Z,70.90
2023-11-09T17:20:40.317Z,70.60
2023-11-09T17:23:08.206Z,70.40
2023-11-09T17:25:36.049Z,70.30
2023-11-09T17:28:04.219Z,69.40
2023-11-09T17:30:32.247Z,68.50
2023-11-09T17:33:01.554Z,67.70
2023-11-09T17:35:29.858Z,68.20
2023-11-09T17:37:57.378Z,69.00
2023-11-09T17:40:24.849Z,69.70
2023-11-09T17:42:52.335Z,69.40
2023-11-09T17:45:19.797Z,69.50
2023-11-09T17:47:48.417Z,69.40
2023-11-09T17:50:18.381Z,67.20
2023-11-09T17:52:48.628Z,67.30
2023-11-09T17:55:16.816Z,67.60
2023-11-09T17:57:48.773Z,67.30
2023-11-09T18:00:17.563Z,68.70
2023-11-09T18:02:46.729Z,68.10
2023-11-09T18:05:15.487Z,67.90
2023-11-09T18:07:43.032Z,67.20
2023-11-09T18:10:12.862Z,66.50
2023-11-09T18:12:43.224Z,66.20
2023-11-09T18:15:12.358Z,66.70
2023-11-09T18:17:39.903Z,66.70
2023-11-09T18:20:10.444Z,66.60
2023-11-09T18:22:40.740Z,66.20
2023-11-09T18:25:10.741Z,66.30
2023-11-09T18:27:40.550Z,68.20
2023-11-09T18:30:10.675Z,68.20
2023-11-09T18:32:38.402Z,68.30
2023-11-09T18:35:08.164Z,69.30
2023-11-09T18:37:35.998Z,68.30
2023-11-09T18:40:05.459Z,67.90
2023-11-09T18:42:32.823Z,74.40
2023-11-09T18:45:00.399Z,75.10
2023-11-09T18:47:29.386Z,75.00
2023-11-09T18:52:30.270Z,75.40
2023-11-09T18:54:58.009Z,74.60
2023-11-09T18:57:26.279Z,75.20
2023-11-09T18:59:53.944Z,75.20
2023-11-09T19:02:21.923Z,75.30
2023-11-09T19:04:52.680Z,75.40
2023-11-09T19:07:20.515Z,76.10
2023-11-09T19:09:50.218Z,90.20
2023-11-09T19:12:18.689Z,84.60
2023-11-09T19:14:46.469Z,90.80
2023-11-09T19:17:13.763Z,88.60
2023-11-09T19:19:41.119Z,88.40
2023-11-09T19:24:38.991Z,95.20
2023-11-09T19:27:07.506Z,94.30
2023-11-09T19:29:35.153Z,93.10
2023-11-09T19:32:05.964Z,93.10
2023-11-09T19:34:34.569Z,93.50
2023-11-09T19:37:02.952Z,91.30
2023-11-09T19:39:30.640Z,91.70
2023-11-09T19:41:58.762Z,93.20
2023-11-09T19:44:26.566Z,91.70
2023-11-09T19:46:54.446Z,91.70
2023-11-09T19:49:21.982Z,91.60
2023-11-09T19:51:49.589Z,91.50
2023-11-09T19:54:17.695Z,91.20
2023-11-09T19:56:45.056Z,91.50
2023-11-09T19:59:12.653Z,91.60
2023-11-09T20:01:41.124Z,91.80
2023-11-09T20:04:09.091Z,91.10
2023-11-09T20:06:36.561Z,90.60
2023-11-09T20:09:05.806Z,90.90
2023-11-09T20:11:33.564Z,91.20
2023-11-09T20:14:02.120Z,90.80
2023-11-09T20:16:31.054Z,90.80
2023-11-09T20:18:58.791Z,91.10
2023-11-09T20:21:26.410Z,91.40
2023-11-09T20:23:53.693Z,92.60
2023-11-09T20:26:21.556Z,94.20
2023-11-09T20:28:51.619Z,95.90
2023-11-09T20:31:19.550Z,94.30
2023-11-09T20:33:47.923Z,92.70
2023-11-09T20:36:15.655Z,92.30
2023-11-09T20:38:43.149Z,93.80
2023-11-09T20:41:10.417Z,93.50
2023-11-09T20:43:40.192Z,93.30
2023-11-09T20:46:10.763Z,93.20
2023-11-09T20:48:38.121Z,93.30
2023-11-09T20:51:09.253Z,93.10
2023-11-09T20:53:37.077Z,93.00
2023-11-09T20:56:05.988Z,92.90
2023-11-09T20:58:33.325Z,92.80
2023-11-09T21:01:01.021Z,93.10
2023-11-09T21:03:34.078Z,93.00
2023-11-09T21:06:02.240Z,93.20
2023-11-09T21:08:29.658Z,93.00
2023-11-09T21:10:57.224Z,91.10
2023-11-09T21:18:21.586Z,97.90
2023-11-09T21:20:49.304Z,90.00
2023-11-09T21:23:17.692Z,89.20
2023-11-09T21:25:48.506Z,84.20
2023-11-09T21:28:16.358Z,79.20
2023-11-09T21:30:43.901Z,78.30
2023-11-09T21:33:11.519Z,78.00
2023-11-09T21:35:38.886Z,77.40
2023-11-09T21:38:06.380Z,78.80
2023-11-09T21:40:34.104Z,79.60
2023-11-09T21:43:01.571Z,79.40
2023-11-09T21:45:30.960Z,79.60
2023-11-09T21:47:58.613Z,80.60
2023-11-09T21:50:26.100Z,93.10
2023-11-09T21:52:53.563Z,72.30
2023-11-09T21:55:23.744Z,71.30
2023-11-09T21:57:53.273Z,71.10
2023-11-09T22:00:21.003Z,70.10
2023-11-09T22:02:49.088Z,69.80
2023-11-09T22:05:17.789Z,71.70
2023-11-09T22:07:45.777Z,70.90
2023-11-09T22:10:14.100Z,69.30
2023-11-09T22:12:41.955Z,70.90
2023-11-09T22:15:15.801Z,68.70
2023-11-09T22:17:43.952Z,70.10
2023-11-09T22:20:13.060Z,68.60
2023-11-09T22:22:40.909Z,70.90
2023-11-09T22:25:08.797Z,70.10
2023-11-09T22:27:36.296Z,69.90
2023-11-09T22:30:04.264Z,69.40
2023-11-09T22:32:31.668Z,68.00
2023-11-09T22:34:59.119Z,68.80
2023-11-09T22:37:26.675Z,69.70
2023-11-09T22:39:54.106Z,70.50
2023-11-09T22:42:21.598Z,69.80
2023-11-09T22:44:49.150Z,68.20
2023-11-09T22:47:16.636Z,70.00
2023-11-09T22:49:44.244Z,68.70
2023-11-09T22:52:11.582Z,70.30
2023-11-09T22:54:39.300Z,70.60
2023-11-09T22:57:07.543Z,70.70
2023-11-09T22:59:35.029Z,70.50
2023-11-09T23:02:02.534Z,71.20
2023-11-09T23:04:31.890Z,70.60
2023-11-09T23:06:59.577Z,71.10
2023-11-09T23:09:27.749Z,70.10
2023-11-09T23:11:55.122Z,71.20
2023-11-09T23:14:22.453Z,70.60
2023-11-09T23:16:49.997Z,70.70
2023-11-09T23:19:17.277Z,71.10
2023-11-09T23:21:45.005Z,73.10
2023-11-09T23:24:12.568Z,72.20
2023-11-09T23:26:40.313Z,75.20
2023-11-09T23:29:07.620Z,75.20
2023-11-09T23:31:35.102Z,76.60
2023-11-09T23:34:04.687Z,76.20
2023-11-09T23:36:32.273Z,77.70
2023-11-09T23:38:59.963Z,78.60
2023-11-09T23:41:27.459Z,78.40
2023-11-09T23:43:55.038Z,82.30
2023-11-09T23:46:22.730Z,80.00
2023-11-09T23:48:50.301Z,82.20
2023-11-09T23:51:24.164Z,84.30
2023-11-09T23:53:51.772Z,83.80
2023-11-09T23:56:19.245Z,84.50
2023-11-09T23:58:47.196Z,83.80
